HomeShort term forecast

Short term forecast

Graphical weather forecast for the next 48 hours for Montreal:
Short term forecast
This weather forecast is automatically refreshed every 3 hours.

Hourly Experimental Forecast for the next 48 hours

Overall summary: Clear throughout the day.

 Date & Hour   Temp   Feel   Baro   Hum   Speed & Bearing   Wind Gust   Precip.%   Precip.   Visibility   Cloud cover   Conditions 
 19/07/2018 - 02:00  16.0°C  16.0°C  1016.8 hPa  62%  5.4 km/h   9.3 km/h  0%  --  16.1km  3%  Clear 
 19/07/2018 - 03:00  15.5°C  15.5°C  1017.0 hPa  65%  5.8 km/h   12.6 km/h  0%  --  16.1km  2%  Clear 
 19/07/2018 - 04:00  14.5°C  14.5°C  1017.2 hPa  69%  6.1 km/h   14.7 km/h  0%  --  16.1km  1%  Clear 
 19/07/2018 - 05:00  13.6°C  13.6°C  1017.6 hPa  73%  6.0 km/h   14.8 km/h  0%  --  16.1km  1%  Clear 
 19/07/2018 - 06:00  13.9°C  13.9°C  1018.0 hPa  72%  5.6 km/h   12.0 km/h  1%  0.01 mm/h  16.1km  1%  Clear 
 19/07/2018 - 07:00  15.8°C  15.8°C  1018.3 hPa  65%  5.4 km/h   12.8 km/h  1%  0.02 mm/h  16.1km  1%  Clear 
 19/07/2018 - 08:00  18.0°C  18.0°C  1018.6 hPa  57%  6.4 km/h   10.9 km/h  1%  0.03 mm/h  16.1km  1%  Clear 
 19/07/2018 - 09:00  20.0°C  20.0°C  1018.9 hPa  50%  7.5 km/h   11.5 km/h  0%  --  16.1km  0%  Clear 
 19/07/2018 - 10:00  21.5°C  21.5°C  1018.9 hPa  46%  8.7 km/h   14.7 km/h  0%  --  16.1km  0%  Clear 
 19/07/2018 - 11:00  22.9°C  22.9°C  1018.8 hPa  44%  10.7 km/h   16.4 km/h  0%  --  16.1km  0%  Clear 
 19/07/2018 - 12:00  24.0°C  24.0°C  1018.6 hPa  41%  11.7 km/h   17.3 km/h  0%  --  16.1km  0%  Clear 
 19/07/2018 - 13:00  24.8°C  24.8°C  1018.1 hPa  39%  12.4 km/h   17.2 km/h  0%  --  16.1km  0%  Clear 
 19/07/2018 - 14:00  25.4°C  25.4°C  1017.7 hPa  37%  12.8 km/h   17.6 km/h  0%  --  16.1km  0%  Clear 
 19/07/2018 - 15:00  26.2°C  26.2°C  1017.4 hPa  37%  13.5 km/h   17.8 km/h  0%  --  16.1km  0%  Clear 
 19/07/2018 - 16:00  27.0°C  27.0°C  1017.2 hPa  36%  14.0 km/h   18.4 km/h  0%  --  16.1km  0%  Clear 
 19/07/2018 - 17:00  27.4°C  27.4°C  1017.0 hPa  36%  14.1 km/h   18.6 km/h  0%  --  16.1km  0%  Clear 
 19/07/2018 - 18:00  27.4°C  27.4°C  1017.0 hPa  37%  13.1 km/h   18.3 km/h  0%  --  16.1km  0%  Clear 
 19/07/2018 - 19:00  27.0°C  27.0°C  1017.2 hPa  40%  11.2 km/h   17.6 km/h  0%  --  16.1km  0%  Clear 
 19/07/2018 - 20:00  26.0°C  26.0°C  1017.4 hPa  45%  9.4 km/h   16.8 km/h  0%  --  16.1km  0%  Clear 
 19/07/2018 - 21:00  24.6°C  24.6°C  1017.7 hPa  48%  9.0 km/h   16.2 km/h  0%  --  16.1km  0%  Clear 
 19/07/2018 - 22:00  23.0°C  23.0°C  1018.0 hPa  52%  9.3 km/h   15.4 km/h  0%  --  16.1km  0%  Clear 
 19/07/2018 - 23:00  21.9°C  21.9°C  1018.4 hPa  55%  9.3 km/h   14.3 km/h  0%  --  16.1km  0%  Clear 
 20/07/2018 - 00:00  21.2°C  21.2°C  1018.7 hPa  56%  9.1 km/h   12.6 km/h  0%  --  16.1km  0%  Clear 
 20/07/2018 - 01:00  20.4°C  20.4°C  1019.0 hPa  58%  8.7 km/h   10.6 km/h  0%  --  16.1km  0%  Clear 
 20/07/2018 - 02:00  19.6°C  19.6°C  1019.3 hPa  60%  7.8 km/h   8.7 km/h  0%  --  16.1km  0%  Clear 
 20/07/2018 - 03:00  18.3°C  18.3°C  1019.5 hPa  65%  6.6 km/h   6.9 km/h  0%  --  16.1km  0%  Clear 
 20/07/2018 - 04:00  17.1°C  17.1°C  1019.7 hPa  69%  5.3 km/h   5.6 km/h  0%  --  16.1km  0%  Clear 
 20/07/2018 - 05:00  16.4°C  16.4°C  1019.9 hPa  71%  4.5 km/h   4.7 km/h  0%  --  16.1km  0%  Clear 
 20/07/2018 - 06:00  17.2°C  17.2°C  1020.3 hPa  68%  4.2 km/h   4.5 km/h  0%  --  16.1km  1%  Clear 
 20/07/2018 - 07:00  18.8°C  18.8°C  1020.6 hPa  63%  4.1 km/h   5.1 km/h  0%  --  16.1km  1%  Clear 
 20/07/2018 - 08:00  20.7°C  20.7°C  1020.9 hPa  57%  4.1 km/h   6.1 km/h  0%  --  16.1km  2%  Clear 
 20/07/2018 - 09:00  22.4°C  22.4°C  1021.1 hPa  53%  4.5 km/h   7.2 km/h  0%  --  16.1km  3%  Clear 
 20/07/2018 - 10:00  24.0°C  24.0°C  1021.0 hPa  49%  5.0 km/h   8.4 km/h  0%  --  16.1km  4%  Clear 
 20/07/2018 - 11:00  25.6°C  25.6°C  1020.9 hPa  46%  5.5 km/h   9.4 km/h  0%  --  16.1km  5%  Clear 
 20/07/2018 - 12:00  26.8°C  26.8°C  1020.7 hPa  44%  6.1 km/h   10.3 km/h  0%  --  16.1km  4%  Clear 
 20/07/2018 - 13:00  27.7°C  27.7°C  1020.3 hPa  42%  6.7 km/h   11.2 km/h  0%  --  16.1km  4%  Clear 
 20/07/2018 - 14:00  28.4°C  28.4°C  1019.8 hPa  41%  7.7 km/h   12.0 km/h  0%  --  16.1km  4%  Clear 
 20/07/2018 - 15:00  29.3°C  29.3°C  1019.2 hPa  39%  9.1 km/h   12.5 km/h  0%  --  16.1km  3%  Clear 
 20/07/2018 - 16:00  29.9°C  29.9°C  1018.6 hPa  38%  10.2 km/h   12.8 km/h  0%  --  16.1km  1%  Clear 
 20/07/2018 - 17:00  30.3°C  30.3°C  1018.3 hPa  37%  11.0 km/h   13.7 km/h  0%  --  16.1km  0%  Clear 
 20/07/2018 - 18:00  30.2°C  30.2°C  1018.1 hPa  37%  11.7 km/h   15.4 km/h  0%  --  16.1km  1%  Clear 
 20/07/2018 - 19:00  29.7°C  29.7°C  1018.1 hPa  39%  12.0 km/h   17.5 km/h  0%  --  16.1km  3%  Clear 
 20/07/2018 - 20:00  28.5°C  28.5°C  1018.1 hPa  42%  11.5 km/h   19.3 km/h  0%  --  16.1km  6%  Clear 
 20/07/2018 - 21:00  26.9°C  27.1°C  1018.2 hPa  45%  10.9 km/h   20.8 km/h  0%  --  16.1km  11%  Clear 
 20/07/2018 - 22:00  25.3°C  25.3°C  1018.3 hPa  48%  10.5 km/h   22.0 km/h  0%  --  16.1km  17%  Clear 
 20/07/2018 - 23:00  24.2°C  24.2°C  1018.3 hPa  51%  10.0 km/h   22.0 km/h  0%  --  16.1km  45%  Partly Cloudy 
 21/07/2018 - 00:00  23.5°C  23.5°C  1018.5 hPa  53%  9.0 km/h   19.5 km/h  0%  --  16.1km  59%  Partly Cloudy 
 21/07/2018 - 01:00  22.9°C  22.9°C  1018.6 hPa  54%  7.9 km/h   15.8 km/h  0%  --  16.1km  62%  Mostly Cloudy 
Test

 

Past weather and reports

Past weatherFind in this section the past weather conditions, weather archive, graphics, reports and statistics.

Current conditions

Current weather condition for MontrealAll you need to know about the current weather conditions for Montreal. Weather data is updated every 10 minutes.

Weather forecast

Current Montreal weatherSince 2004, celinium.com website has provided accurate weather forecast for Montreal's island.